EDT,Max TemperatureF,Mean TemperatureF,Min TemperatureF,Max Dew PointF,MeanDew PointF,Min DewpointF,Max Humidity, Mean Humidity, Min Humidity, Max Sea Level PressureIn, Mean Sea Level PressureIn, Min Sea Level PressureIn, Max VisibilityMiles, Mean VisibilityMiles, Min VisibilityMiles, Max Wind SpeedMPH, Mean Wind SpeedMPH, Max Gust SpeedMPH,PrecipitationIn, CloudCover, Events, WindDirDegrees
2012-10-1,66,52,42,49,44,39,96,78,46,29.97,29.93,29.85,10,8,2,6,1,,0.01,0,,145
2012-10-2,68,61,54,64,59,49,94,90,80,29.91,29.87,29.82,10,8,2,9,3,,0.25,7,Rain,80
2012-10-3,73,66,59,63,61,55,94,85,59,30.17,30.01,29.90,10,8,1,10,4,,0.01,6,Rain,201
2012-10-4,72,64,57,55,52,50,90,69,47,30.18,30.14,30.09,10,10,10,12,4,22,0.00,1,,208
2012-10-5,68,58,51,58,55,50,96,84,68,30.09,30.02,29.92,10,8,1,9,7,20,0.05,7,Rain,248
2012-10-6,54,49,45,48,42,34,94,79,50,30.09,29.96,29.88,10,8,2,21,8,26,0.54,8,Rain,272
2012-10-7,46,42,39,43,38,36,96,86,74,30.17,30.09,30.05,10,9,4,12,5,20,0.21,7,Rain,243
2012-10-8,48,42,35,38,34,32,93,77,54,30.26,30.22,30.17,10,9,6,9,5,,0.01,3,,193
2012-10-9,57,46,34,40,36,31,92,72,42,30.22,30.13,29.99,10,9,3,9,2,,0.00,0,,190
2012-10-10,51,46,42,45,40,31,93,84,65,30.14,29.95,29.87,10,9,2,15,8,22,0.20,6,Rain,242
2012-10-11,54,44,34,33,29,26,79,57,38,30.27,30.19,30.12,10,10,10,15,8,23,0.00,2,,228
2012-10-12,48,42,35,40,34,27,93,71,44,30.45,30.28,30.12,10,10,7,10,7,18,0.02,5,Rain,328
2012-10-13,57,44,32,47,30,23,75,60,36,30.44,30.31,30.05,10,10,10,7,2,,0.00,1,Rain,116
2012-10-14,73,63,55,57,54,48,93,71,55,30.04,29.88,29.64,10,9,2,18,9,31,0.32,7,Rain,196
2012-10-15,64,55,46,57,46,42,93,79,66,29.88,29.76,29.58,10,10,5,20,11,28,0.04,8,Rain,252
2012-10-16,54,49,44,45,39,35,93,73,53,29.98,29.92,29.88,10,10,10,9,5,,0.01,5,Rain,270
2012-10-17,66,56,45,45,40,37,74,57,43,29.91,29.84,29.76,10,10,10,10,3,17,0.00,0,,173
2012-10-18,66,55,45,47,43,38,90,71,48,29.81,29.72,29.64,10,10,2,16,5,43,0.14,4,Rain,201
2012-10-19,63,52,42,45,42,35,100,78,39,29.79,29.71,29.61,10,7,0,10,3,22,0.05,6,Fog-Rain,198
2012-10-20,51,48,44,43,42,37,93,83,61,29.90,29.75,29.67,10,10,2,18,9,24,0.08,8,Rain,218
2012-10-21,57,50,44,45,42,37,93,81,55,30.15,30.03,29.89,10,8,3,10,6,,0.14,5,Rain,242
2012-10-22,70,56,41,50,43,36,82,63,45,30.18,30.12,30.06,10,10,8,7,3,,0.00,1,,189
2012-10-23,66,60,57,58,55,50,94,84,63,30.07,30.04,30.01,10,7,0,8,4,,0.33,8,Fog-Rain,204
2012-10-24,73,64,57,57,55,52,93,75,55,30.12,30.08,30.05,10,9,5,9,3,,0.00,4,Rain,195
2012-10-25,79,70,60,52,49,46,67,51,31,30.11,30.05,29.99,10,10,10,14,5,21,0.00,1,,185
2012-10-26,68,58,48,54,49,45,93,79,56,30.15,30.09,30.00,10,10,4,14,6,22,0.00,5,Rain,347
2012-10-27,48,46,44,46,43,41,96,91,86,30.10,30.03,29.99,10,6,2,15,11,23,0.71,8,Rain,13
2012-10-28,44,42,41,41,39,37,93,89,81,30.06,29.97,29.88,10,6,2,17,12,28,0.40,8,Rain,17
2012-10-29,41,40,39,39,38,36,93,91,87,29.89,29.66,29.23,10,8,4,24,13,43,0.52,8,Rain,356
2012-10-30,48,44,39,46,41,36,93,87,74,29.37,29.16,29.03,10,8,2,22,13,39,0.33,8,Rain,14
2012-10-31,44,40,37,41,38,36,93,90,86,29.59,29.46,29.35,10,10,5,15,3,23,0.55,8,Rain,255